createdAt,value
2023-07-14T00:03:49.282Z,-59
2023-07-14T00:13:49.282Z,-60
2023-07-14T00:18:49.246Z,-60
2023-07-14T00:23:49.256Z,-60
2023-07-14T00:28:49.465Z,-60
2023-07-14T00:38:49.404Z,-60
2023-07-14T00:48:49.328Z,-61
2023-07-14T00:53:49.311Z,-60
2023-07-14T01:03:49.455Z,-59
2023-07-14T01:13:49.313Z,-60
2023-07-14T01:23:49.312Z,-60
2023-07-14T01:33:49.402Z,-60
2023-07-14T01:43:49.326Z,-60
2023-07-14T01:53:49.320Z,-59
2023-07-14T02:03:49.339Z,-60
2023-07-14T02:08:49.317Z,-60
2023-07-14T02:13:49.349Z,-60
2023-07-14T02:18:49.336Z,-59
2023-07-14T02:23:49.371Z,-59
2023-07-14T02:33:49.341Z,-60
2023-07-14T02:53:49.507Z,-59
2023-07-14T02:58:49.535Z,-60
2023-07-14T03:03:49.507Z,-61
2023-07-14T03:13:49.405Z,-60
2023-07-14T03:23:49.372Z,-60
2023-07-14T03:28:49.384Z,-60
2023-07-14T03:38:49.447Z,-61
2023-07-14T03:48:49.388Z,-60
2023-07-14T03:53:49.395Z,-60
2023-07-14T04:03:49.429Z,-61
2023-07-14T04:13:49.385Z,-59
2023-07-14T04:18:49.419Z,-60
2023-07-14T04:28:49.391Z,-59
2023-07-14T04:38:49.395Z,-59
2023-07-14T04:43:49.415Z,-60
2023-07-14T04:53:49.405Z,-60
2023-07-14T05:08:50.494Z,-60
2023-07-14T05:13:49.610Z,-61
2023-07-14T05:23:49.442Z,-59
2023-07-14T05:28:49.470Z,-60
2023-07-14T05:38:49.465Z,-68
2023-07-14T05:43:49.461Z,-68
2023-07-14T05:53:49.466Z,-67
2023-07-14T06:03:49.518Z,-68
2023-07-14T06:08:49.489Z,-68
2023-07-14T06:18:49.442Z,-68
2023-07-14T06:23:49.570Z,-68
2023-07-14T06:33:49.471Z,-68
2023-07-14T06:53:49.454Z,-68
2023-07-14T06:58:49.480Z,-68
2023-07-14T07:03:50.781Z,-67
2023-07-14T07:13:49.520Z,-68
2023-07-14T07:18:49.544Z,-68
2023-07-14T07:23:49.588Z,-68
2023-07-14T07:28:49.542Z,-68
2023-07-14T07:38:49.531Z,-68
2023-07-14T07:43:49.655Z,-68
2023-07-14T07:53:49.579Z,-68
2023-07-14T07:58:49.605Z,-68
2023-07-14T08:18:49.573Z,-68
2023-07-14T08:28:49.590Z,-68
2023-07-14T08:33:49.577Z,-68
2023-07-14T08:43:49.576Z,-68
2023-07-14T08:48:49.656Z,-68
2023-07-14T08:58:49.582Z,-68
2023-07-14T09:03:51.521Z,-68
2023-07-14T09:13:49.643Z,-68
2023-07-14T09:18:49.749Z,-68
2023-07-14T09:23:49.601Z,-68
2023-07-14T09:28:49.746Z,-68
2023-07-14T09:38:49.616Z,-68
2023-07-14T09:48:49.652Z,-66
2023-07-14T09:53:50.632Z,-66
2023-07-14T10:03:49.677Z,-66
2023-07-14T10:13:49.666Z,-66
2023-07-14T10:23:49.663Z,-66
2023-07-14T10:33:49.863Z,-66
2023-07-14T10:43:49.728Z,-66
2023-07-14T10:53:49.709Z,-66
2023-07-14T10:58:49.708Z,-66
2023-07-14T11:13:49.794Z,-66
2023-07-14T11:23:49.725Z,-66
2023-07-14T11:28:51.112Z,-66
2023-07-14T11:33:49.743Z,-65
2023-07-14T11:43:49.740Z,-60
2023-07-14T11:48:49.710Z,-60
2023-07-14T11:58:49.702Z,-60
2023-07-14T12:03:49.877Z,-61
2023-07-14T12:08:49.758Z,-61
2023-07-14T12:18:49.715Z,-60
2023-07-14T12:23:49.812Z,-61
2023-07-14T12:33:49.755Z,-61
2023-07-14T12:43:49.771Z,-61
2023-07-14T12:48:49.972Z,-61
2023-07-14T12:58:49.765Z,-61
2023-07-14T13:08:49.761Z,-61
2023-07-14T13:18:49.770Z,-61
2023-07-14T13:23:49.762Z,-60
2023-07-14T13:28:49.928Z,-61
2023-07-14T13:38:49.793Z,-61
2023-07-14T13:43:49.818Z,-60
2023-07-14T13:58:49.776Z,-60
2023-07-14T14:03:49.887Z,-61
2023-07-14T14:13:49.820Z,-60
2023-07-14T14:18:49.822Z,-60
2023-07-14T14:28:49.821Z,-59
2023-07-14T14:38:50.090Z,-60
2023-07-14T14:43:49.866Z,-60
2023-07-14T14:48:49.821Z,-60
2023-07-14T15:18:49.842Z,-60
2023-07-14T15:23:49.963Z,-60
2023-07-14T15:28:49.840Z,-60
2023-07-14T15:38:49.850Z,-60
2023-07-14T15:43:49.880Z,-60
2023-07-14T15:48:50.016Z,-61
2023-07-14T15:58:49.885Z,-60
2023-07-14T16:08:49.850Z,-60
2023-07-14T16:13:49.877Z,-61
2023-07-14T16:18:49.936Z,-61
2023-07-14T16:23:49.924Z,-60
2023-07-14T16:28:50.138Z,-61
2023-07-14T16:43:49.994Z,-61
2023-07-14T16:58:49.965Z,-60
2023-07-14T17:03:49.942Z,-61
2023-07-14T17:13:49.980Z,-61
2023-07-14T17:33:49.968Z,-60
2023-07-14T17:43:49.939Z,-65
2023-07-14T17:48:49.984Z,-65
2023-07-14T17:58:49.989Z,-65
2023-07-14T18:08:50.001Z,-65
2023-07-14T18:13:49.982Z,-65
2023-07-14T18:18:50.057Z,-65
2023-07-14T18:28:50.036Z,-65
2023-07-14T18:38:50.022Z,-65
2023-07-14T18:43:50.023Z,-65
2023-07-14T18:53:50.044Z,-65
2023-07-14T18:58:50.187Z,-64
2023-07-14T19:23:50.150Z,-65
2023-07-14T19:33:50.137Z,-65
2023-07-14T19:38:50.061Z,-65
2023-07-14T19:43:52.209Z,-65
2023-07-14T19:53:50.079Z,-65
2023-07-14T19:58:50.123Z,-65
2023-07-14T20:03:50.312Z,-65
2023-07-14T20:13:50.116Z,-66
2023-07-14T20:23:50.118Z,-66
2023-07-14T20:33:50.113Z,-66
2023-07-14T20:38:50.080Z,-66
2023-07-14T20:43:50.183Z,-66
2023-07-14T21:03:50.163Z,-66
2023-07-14T21:13:50.162Z,-66
2023-07-14T21:23:50.184Z,-66
2023-07-14T21:28:50.198Z,-66
2023-07-14T21:38:50.228Z,-66
2023-07-14T21:48:50.174Z,-65
2023-07-14T21:58:50.170Z,-65
2023-07-14T22:08:50.161Z,-66
2023-07-14T22:13:50.181Z,-66
2023-07-14T22:18:50.233Z,-65
2023-07-14T22:28:50.181Z,-66
2023-07-14T22:38:50.191Z,-65
2023-07-14T22:43:50.336Z,-65
2023-07-14T22:53:50.253Z,-65
2023-07-14T23:03:50.244Z,-65
2023-07-14T23:13:50.267Z,-66
2023-07-14T23:23:50.241Z,-66
2023-07-14T23:43:50.296Z,-66
2023-07-14T23:48:50.533Z,-65
2023-07-14T23:58:50.357Z,-67
